Time;durP1;ratioP1;P1;durP2;ratioP2;P2;SDS_P1;SDS_P2;PMS_P1;PMS_P2;Temp;Humidity;BMP_temperature;BMP_pressure;BME280_temperature;BME280_humidity;BME280_pressure;Samples;Min_cycle;Max_cycle;Signal;HPM_P1;HPM_P2
2024/04/02 00:00:43;;;;;;;;;;;14.90;57.50;;;;;;5091700;28;19947;-73
2024/04/02 00:03:10;;;;;;;;;;;14.80;58.70;;;;;;5090531;28;20340;-73
2024/04/02 00:05:36;;;;;;;;;;;14.70;59.40;;;;;;5091860;28;19961;-74
2024/04/02 00:08:02;;;;;;;;;;;14.70;59.40;;;;;;5092087;28;20388;-74
2024/04/02 00:10:28;;;;;;;;;;;14.70;60.10;;;;;;5090591;28;19908;-74
2024/04/02 00:12:54;;;;;;;;;;;14.70;61.90;;;;;;5090251;28;19904;-74
2024/04/02 00:15:19;;;;;;;;;;;14.60;62.50;;;;;;5091517;28;19922;-74
2024/04/02 00:17:45;;;;;;;;;;;14.60;63.80;;;;;;5091521;28;19931;-74
2024/04/02 00:20:11;;;;;;;;;;;14.60;65.40;;;;;;5090210;28;19907;-72
2024/04/02 00:22:37;;;;;;;;;;;14.40;65.90;;;;;;5090160;28;19911;-74
2024/04/02 00:25:03;;;;;;;;;;;14.40;66.50;;;;;;5089941;28;19908;-74
2024/04/02 00:27:29;;;;;;;;;;;14.20;68.60;;;;;;5091450;28;19910;-74
2024/04/02 00:29:54;;;;;;;;;;;14.00;70.20;;;;;;5090113;28;19908;-73
2024/04/02 00:32:20;;;;;;;;;;;13.80;72.90;;;;;;5091327;28;19915;-74
2024/04/02 00:34:45;;;;;;;;;;;13.60;75.70;;;;;;5089663;28;19908;-73
2024/04/02 00:37:11;;;;;;;;;;;13.60;78.50;;;;;;5089906;28;20370;-73
2024/04/02 00:39:36;;;;;;;;;;;13.50;81.00;;;;;;5089757;28;20448;-73
2024/04/02 00:42:03;;;;;;;;;;;13.50;83.80;;;;;;5091242;28;20396;-73
2024/04/02 00:44:28;;;;;;;;;;;13.30;88.20;;;;;;5089859;28;19927;-74
2024/04/02 00:46:54;;;;;;;;;;;13.10;91.20;;;;;;5089760;28;20201;-74
2024/04/02 00:49:20;;;;;;;;;;;13.00;93.00;;;;;;5091125;28;19911;-73
2024/04/02 00:51:46;;;;;;;;;;;13.00;94.50;;;;;;5090901;28;20058;-73
2024/04/02 00:54:11;;;;;;;;;;;13.00;95.70;;;;;;5090805;28;20502;-74
2024/04/02 00:56:37;;;;;;;;;;;13.00;96.60;;;;;;5090713;28;19912;-73
2024/04/02 00:59:03;;;;;;;;;;;12.90;97.70;;;;;;5090782;28;19953;-73
2024/04/02 01:01:29;;;;;;;;;;;12.90;98.70;;;;;;5089681;28;19908;-74
2024/04/02 01:03:54;;;;;;;;;;;12.80;99.60;;;;;;5089316;28;19908;-73
2024/04/02 01:06:20;;;;;;;;;;;12.80;99.90;;;;;;5090655;28;19915;-73
2024/04/02 01:08:46;;;;;;;;;;;12.80;99.90;;;;;;5090651;28;20509;-73
2024/04/02 01:11:12;;;;;;;;;;;12.80;99.90;;;;;;5090627;28;19908;-74
2024/04/02 01:13:37;;;;;;;;;;;12.80;99.90;;;;;;5088652;28;19915;-74
2024/04/02 01:16:03;;;;;;;;;;;12.70;99.90;;;;;;5090435;28;20387;-73
2024/04/02 01:18:29;;;;;;;;;;;12.70;99.90;;;;;;5090736;28;19908;-74
2024/04/02 01:20:55;;;;;;;;;;;12.70;99.90;;;;;;5090783;28;20018;-74
2024/04/02 01:23:21;;;;;;;;;;;12.70;99.90;;;;;;5090575;28;19915;-73
2024/04/02 01:25:47;;;;;;;;;;;12.60;99.90;;;;;;5089143;28;19905;-74
2024/04/02 01:28:12;;;;;;;;;;;12.60;99.90;;;;;;5090366;28;19915;-73
2024/04/02 01:30:38;;;;;;;;;;;12.50;99.90;;;;;;5088901;28;19907;-74
2024/04/02 01:33:03;;;;;;;;;;;12.50;99.90;;;;;;5090293;28;19908;-73
2024/04/02 01:35:29;;;;;;;;;;;12.40;99.90;;;;;;5088757;28;20056;-73
2024/04/02 01:37:54;;;;;;;;;;;12.30;99.90;;;;;;5090152;28;19948;-73
2024/04/02 01:40:20;;;;;;;;;;;12.40;99.90;;;;;;5088489;28;20348;-74
2024/04/02 01:42:45;;;;;;;;;;;12.50;99.90;;;;;;5088809;28;20646;-73
2024/04/02 01:45:11;;;;;;;;;;;12.50;99.90;;;;;;5089987;28;19907;-72
2024/04/02 01:47:36;;;;;;;;;;;12.50;99.90;;;;;;5088777;28;19914;-74
2024/04/02 01:50:02;;;;;;;;;;;12.50;99.90;;;;;;5090095;28;19904;-73
2024/04/02 01:52:28;;;;;;;;;;;12.50;99.90;;;;;;5088719;28;20019;-74
2024/04/02 01:54:53;;;;;;;;;;;12.50;99.90;;;;;;5088500;28;19957;-73
2024/04/02 01:57:19;;;;;;;;;;;12.50;99.90;;;;;;5089900;28;19916;-73
2024/04/02 01:59:44;;;;;;;;;;;12.40;99.90;;;;;;5089924;28;19904;-73
2024/04/02 02:02:10;;;;;;;;;;;12.40;99.90;;;;;;5089841;28;19908;-73
2024/04/02 02:04:35;;;;;;;;;;;12.40;99.90;;;;;;5088428;28;19910;-74
2024/04/02 02:07:01;;;;;;;;;;;12.40;99.90;;;;;;5088558;28;20248;-73
2024/04/02 02:09:26;;;;;;;;;;;12.30;99.90;;;;;;5088507;28;19908;-74
2024/04/02 02:11:52;;;;;;;;;;;12.30;99.90;;;;;;5088511;28;19908;-73
2024/04/02 02:14:17;;;;;;;;;;;12.30;99.90;;;;;;5089713;28;19919;-74
2024/04/02 02:16:43;;;;;;;;;;;12.30;99.90;;;;;;5089779;28;19919;-73
2024/04/02 02:19:08;;;;;;;;;;;12.20;99.90;;;;;;5088644;28;20481;-73
2024/04/02 02:21:34;;;;;;;;;;;12.20;99.90;;;;;;5089811;28;20388;-76
2024/04/02 02:24:00;;;;;;;;;;;12.10;99.90;;;;;;5090101;28;19908;-75
2024/04/02 02:26:25;;;;;;;;;;;12.10;99.90;;;;;;5093780;28;19907;-75
2024/04/02 02:28:51;;;;;;;;;;;12.10;99.90;;;;;;5093670;28;20376;-76
2024/04/02 02:31:16;;;;;;;;;;;12.00;99.90;;;;;;5092422;28;20407;-75
2024/04/02 02:33:46;;;;;;;;;;;12.00;99.90;;;;;;5092498;28;20322;-75
2024/04/02 02:36:11;;;;;;;;;;;12.00;99.90;;;;;;5093214;28;19919;-75
2024/04/02 02:38:37;;;;;;;;;;;12.00;99.90;;;;;;5092109;28;19920;-74
2024/04/02 02:41:02;;;;;;;;;;;11.90;99.90;;;;;;5092215;28;19931;-75
2024/04/02 02:43:28;;;;;;;;;;;11.90;99.90;;;;;;5093360;28;19908;-75
2024/04/02 02:45:54;;;;;;;;;;;11.90;99.90;;;;;;5093385;28;19908;-75
2024/04/02 02:48:19;;;;;;;;;;;11.90;99.90;;;;;;5093336;28;20422;-75
2024/04/02 02:50:45;;;;;;;;;;;12.00;99.90;;;;;;5091907;28;19915;-75
2024/04/02 02:53:11;;;;;;;;;;;11.90;99.90;;;;;;5093251;28;19908;-75
2024/04/02 02:55:37;;;;;;;;;;;11.80;99.90;;;;;;5091489;28;19919;-75
2024/04/02 02:58:02;;;;;;;;;;;11.80;99.90;;;;;;5092936;28;19908;-75
2024/04/02 03:00:28;;;;;;;;;;;11.70;99.90;;;;;;5093150;28;19918;-75
2024/04/02 03:02:53;;;;;;;;;;;11.60;99.90;;;;;;5092131;28;20296;-75
2024/04/02 03:05:19;;;;;;;;;;;11.40;99.90;;;;;;5093540;28;20682;-74
2024/04/02 03:07:44;;;;;;;;;;;11.40;99.90;;;;;;5091838;28;20284;-75
2024/04/02 03:10:10;;;;;;;;;;;11.40;99.90;;;;;;5091941;28;20375;-74
2024/04/02 03:12:35;;;;;;;;;;;11.30;99.90;;;;;;5091648;28;20428;-75
2024/04/02 03:15:02;;;;;;;;;;;11.30;99.90;;;;;;5092639;28;20422;-74
2024/04/02 03:17:28;;;;;;;;;;;11.20;99.90;;;;;;5091580;28;19981;-75
2024/04/02 03:19:53;;;;;;;;;;;11.20;99.90;;;;;;5092729;28;20368;-75
2024/04/02 03:22:19;;;;;;;;;;;11.10;99.90;;;;;;5092581;28;19989;-75
2024/04/02 03:24:44;;;;;;;;;;;11.10;99.90;;;;;;5092671;28;19947;-75
2024/04/02 03:27:10;;;;;;;;;;;11.10;99.90;;;;;;5092689;28;19943;-75
2024/04/02 03:29:35;;;;;;;;;;;11.10;99.90;;;;;;5091191;28;19905;-74
2024/04/02 03:32:01;;;;;;;;;;;11.10;99.90;;;;;;5091192;28;19950;-75
2024/04/02 03:34:27;;;;;;;;;;;11.00;99.90;;;;;;5091238;28;19908;-75
2024/04/02 03:36:53;;;;;;;;;;;11.00;99.90;;;;;;5090147;28;19912;-74
2024/04/02 03:39:19;;;;;;;;;;;11.00;99.90;;;;;;5090952;28;20388;-74
2024/04/02 03:41:45;;;;;;;;;;;10.90;99.90;;;;;;5092305;28;19957;-74
2024/04/02 03:44:10;;;;;;;;;;;10.80;99.90;;;;;;5092298;28;19904;-74
2024/04/02 03:46:36;;;;;;;;;;;10.80;99.90;;;;;;5092167;28;19908;-72
2024/04/02 03:49:01;;;;;;;;;;;10.70;99.90;;;;;;5090886;28;19908;-74
2024/04/02 03:51:27;;;;;;;;;;;10.70;99.90;;;;;;5092205;28;19904;-74
2024/04/02 03:53:52;;;;;;;;;;;10.70;99.90;;;;;;5090992;28;19911;-74
2024/04/02 03:56:18;;;;;;;;;;;10.80;99.90;;;;;;5091875;28;20026;-74
2024/04/02 03:58:43;;;;;;;;;;;10.70;99.90;;;;;;5091952;28;20015;-75
2024/04/02 04:01:09;;;;;;;;;;;10.60;99.90;;;;;;5090681;28;19904;-73
2024/04/02 04:03:35;;;;;;;;;;;10.60;99.90;;;;;;5090399;28;19904;-74
2024/04/02 04:06:02;;;;;;;;;;;10.60;99.90;;;;;;5091817;28;20058;-74
2024/04/02 04:08:28;;;;;;;;;;;10.60;99.90;;;;;;5091834;28;19916;-73
2024/04/02 04:10:54;;;;;;;;;;;10.50;99.90;;;;;;5091649;28;19915;-74
2024/04/02 04:13:20;;;;;;;;;;;10.50;99.90;;;;;;5090297;28;19907;-74
2024/04/02 04:15:55;;;;;;;;;;;10.50;99.90;;;;;;5091603;28;19965;-73
2024/04/02 04:18:21;;;;;;;;;;;10.50;99.90;;;;;;5091583;28;19918;-74
2024/04/02 04:20:54;;;;;;;;;;;10.40;99.90;;;;;;5091611;28;19912;-74
2024/04/02 04:23:19;;;;;;;;;;;10.30;99.90;;;;;;5091486;28;19961;-73
2024/04/02 04:25:45;;;;;;;;;;;10.30;99.90;;;;;;5091488;28;19911;-73
2024/04/02 04:28:11;;;;;;;;;;;10.20;99.90;;;;;;5091358;28;20033;-72
2024/04/02 04:30:36;;;;;;;;;;;10.10;99.90;;;;;;5091207;28;19938;-73
2024/04/02 04:33:03;;;;;;;;;;;10.10;99.90;;;;;;5089490;28;19942;-73
2024/04/02 04:35:35;;;;;;;;;;;10.10;99.90;;;;;;5089669;28;19916;-72
2024/04/02 04:38:00;;;;;;;;;;;10.00;99.90;;;;;;5091612;28;19911;-74
2024/04/02 04:40:26;;;;;;;;;;;9.90;99.90;;;;;;5071428;28;19920;-72
2024/04/02 04:42:51;;;;;;;;;;;9.90;99.90;;;;;;5052554;28;19954;-73
2024/04/02 04:45:17;;;;;;;;;;;9.90;99.90;;;;;;5073084;28;19962;-73
2024/04/02 04:47:42;;;;;;;;;;;9.90;99.90;;;;;;5072943;28;19934;-74
2024/04/02 04:50:08;;;;;;;;;;;9.80;99.90;;;;;;5072623;28;20373;-73
2024/04/02 04:52:35;;;;;;;;;;;9.80;99.90;;;;;;5053295;28;20377;-75
2024/04/02 04:55:00;;;;;;;;;;;9.70;99.90;;;;;;5070711;28;19935;-72
2024/04/02 04:57:26;;;;;;;;;;;9.70;99.90;;;;;;5071166;28;20017;-72
2024/04/02 04:59:52;;;;;;;;;;;9.70;99.90;;;;;;5071219;28;20471;-73
2024/04/02 05:02:17;;;;;;;;;;;9.80;99.90;;;;;;5052500;28;19934;-74
2024/04/02 05:04:43;;;;;;;;;;;9.80;99.90;;;;;;5070569;28;19958;-73
2024/04/02 05:07:21;;;;;;;;;;;9.80;99.90;;;;;;5052568;28;19908;-73
2024/04/02 05:09:46;;;;;;;;;;;9.80;99.90;;;;;;5052472;28;19908;-73
2024/04/02 05:12:12;;;;;;;;;;;9.60;99.90;;;;;;5052444;28;20333;-73
2024/04/02 05:14:37;;;;;;;;;;;9.60;99.90;;;;;;5070507;28;20388;-72
2024/04/02 05:17:03;;;;;;;;;;;9.70;99.90;;;;;;5052382;28;20335;-73
2024/04/02 05:19:29;;;;;;;;;;;9.70;99.90;;;;;;5052335;28;20365;-76
2024/04/02 05:21:54;;;;;;;;;;;9.60;99.90;;;;;;5070764;28;19908;-73
2024/04/02 05:24:20;;;;;;;;;;;9.60;99.90;;;;;;5052369;28;19908;-72
2024/04/02 05:26:45;;;;;;;;;;;9.50;99.90;;;;;;5070113;28;19908;-72
2024/04/02 05:29:11;;;;;;;;;;;9.50;99.90;;;;;;5051997;28;19908;-72
2024/04/02 05:31:37;;;;;;;;;;;9.50;99.90;;;;;;5052267;28;19905;-74
2024/04/02 05:34:03;;;;;;;;;;;9.50;99.90;;;;;;5070641;28;20380;-74
2024/04/02 05:36:28;;;;;;;;;;;9.40;99.90;;;;;;5052298;28;20402;-74
2024/04/02 05:38:54;;;;;;;;;;;9.40;99.90;;;;;;5064285;28;19916;-73
2024/04/02 05:41:19;;;;;;;;;;;9.40;99.90;;;;;;5090804;28;19960;-73
2024/04/02 05:43:45;;;;;;;;;;;9.40;99.90;;;;;;5090943;28;19908;-74
2024/04/02 05:46:10;;;;;;;;;;;9.50;99.90;;;;;;5091134;28;19904;-75
2024/04/02 05:48:36;;;;;;;;;;;9.60;99.90;;;;;;5095902;28;19914;-73
2024/04/02 05:51:02;;;;;;;;;;;9.50;99.90;;;;;;5095314;28;19994;-75
2024/04/02 05:53:27;;;;;;;;;;;9.50;99.90;;;;;;5089345;28;19966;-75
2024/04/02 05:55:53;;;;;;;;;;;9.50;99.90;;;;;;5090148;28;20015;-74
2024/04/02 05:58:18;;;;;;;;;;;9.50;99.90;;;;;;5089872;28;19998;-73
2024/04/02 06:00:44;;;;;;;;;;;9.40;99.90;;;;;;5089595;28;19912;-72
2024/04/02 06:03:09;;;;;;;;;;;9.40;99.90;;;;;;5089804;28;20388;-73
2024/04/02 06:05:35;;;;;;;;;;;9.30;99.90;;;;;;5088667;28;19904;-73
2024/04/02 06:08:01;;;;;;;;;;;9.40;99.90;;;;;;5089804;28;19908;-73
2024/04/02 06:10:27;;;;;;;;;;;9.40;99.90;;;;;;5089961;28;19935;-73
2024/04/02 06:12:53;;;;;;;;;;;9.30;99.90;;;;;;5088611;28;20379;-72
2024/04/02 06:15:18;;;;;;;;;;;9.30;99.90;;;;;;5088331;28;19912;-73
2024/04/02 06:17:44;;;;;;;;;;;9.30;99.90;;;;;;5088402;28;20404;-74
2024/04/02 06:20:09;;;;;;;;;;;9.30;99.90;;;;;;5088451;28;19915;-74
2024/04/02 06:22:35;;;;;;;;;;;9.30;99.90;;;;;;5089825;28;19904;-74
2024/04/02 06:25:02;;;;;;;;;;;9.30;99.90;;;;;;5088325;28;19915;-74
2024/04/02 06:27:27;;;;;;;;;;;9.20;99.90;;;;;;5088418;28;19904;-73
2024/04/02 06:29:53;;;;;;;;;;;9.30;99.90;;;;;;5088444;28;19904;-74
2024/04/02 06:32:18;;;;;;;;;;;9.20;99.90;;;;;;5088477;28;19908;-73
2024/04/02 06:34:44;;;;;;;;;;;9.20;99.90;;;;;;5089439;28;19908;-74
2024/04/02 06:37:09;;;;;;;;;;;9.20;99.90;;;;;;5089438;28;19927;-74
2024/04/02 06:39:35;;;;;;;;;;;9.20;99.90;;;;;;5076079;28;19916;-73
2024/04/02 06:42:01;;;;;;;;;;;9.10;99.90;;;;;;5069380;28;19923;-74
2024/04/02 06:44:26;;;;;;;;;;;9.10;99.90;;;;;;5051325;28;19915;-71
2024/04/02 06:46:52;;;;;;;;;;;9.20;99.90;;;;;;5069319;28;19908;-74
2024/04/02 06:49:18;;;;;;;;;;;9.10;99.90;;;;;;5069523;28;19931;-73
2024/04/02 06:51:43;;;;;;;;;;;9.00;99.90;;;;;;5051042;28;19908;-74
2024/04/02 06:54:09;;;;;;;;;;;9.00;99.90;;;;;;5069335;28;19916;-73
2024/04/02 06:56:34;;;;;;;;;;;8.90;99.90;;;;;;5051129;28;19923;-73
2024/04/02 06:59:00;;;;;;;;;;;8.80;99.90;;;;;;5051438;28;19908;-73
2024/04/02 07:01:25;;;;;;;;;;;8.80;99.90;;;;;;5051295;28;19909;-73
2024/04/02 07:03:51;;;;;;;;;;;8.70;99.90;;;;;;5069050;28;19908;-73
2024/04/02 07:06:16;;;;;;;;;;;8.70;99.90;;;;;;5069182;28;20269;-73
2024/04/02 07:08:46;;;;;;;;;;;8.70;99.90;;;;;;5051131;28;19905;-74
2024/04/02 07:11:12;;;;;;;;;;;8.60;99.90;;;;;;5051694;28;19908;-74
2024/04/02 07:13:37;;;;;;;;;;;8.70;99.90;;;;;;5054617;28;19908;-73
2024/04/02 07:16:03;;;;;;;;;;;8.70;99.90;;;;;;5072155;28;19908;-74
2024/04/02 07:18:34;;;;;;;;;;;8.70;99.90;;;;;;5054553;28;19919;-74
2024/04/02 07:21:01;;;;;;;;;;;8.70;99.90;;;;;;5054453;28;20007;-73
2024/04/02 07:23:26;;;;;;;;;;;8.60;99.90;;;;;;5072391;28;19908;-74
2024/04/02 07:25:52;;;;;;;;;;;8.70;99.90;;;;;;5072339;28;20026;-74
2024/04/02 07:28:18;;;;;;;;;;;8.70;99.90;;;;;;5054265;28;19958;-73
2024/04/02 07:30:44;;;;;;;;;;;8.60;99.90;;;;;;5054393;28;20452;-72
2024/04/02 07:33:09;;;;;;;;;;;8.70;99.90;;;;;;5054172;28;19954;-74
2024/04/02 07:35:35;;;;;;;;;;;8.60;99.90;;;;;;5054323;28;20265;-73
2024/04/02 07:38:01;;;;;;;;;;;8.60;99.90;;;;;;5053837;28;19908;-74
2024/04/02 07:40:27;;;;;;;;;;;8.60;99.90;;;;;;5054866;28;19970;-75
2024/04/02 07:42:52;;;;;;;;;;;8.60;99.90;;;;;;5055040;28;20368;-74
2024/04/02 07:45:18;;;;;;;;;;;8.60;99.90;;;;;;5054555;28;20035;-72
2024/04/02 07:47:46;;;;;;;;;;;8.60;99.90;;;;;;5072169;28;19987;-72
2024/04/02 07:50:12;;;;;;;;;;;8.60;99.90;;;;;;5053911;28;19908;-73
2024/04/02 07:52:38;;;;;;;;;;;8.70;99.90;;;;;;5053725;28;19912;-74
2024/04/02 07:55:03;;;;;;;;;;;8.60;99.90;;;;;;5071696;28;19908;-72
2024/04/02 07:57:29;;;;;;;;;;;8.50;99.90;;;;;;5071741;28;20015;-73
2024/04/02 07:59:54;;;;;;;;;;;8.50;99.90;;;;;;5071924;28;19904;-73
2024/04/02 08:02:20;;;;;;;;;;;8.50;99.90;;;;;;5053438;28;19904;-74
2024/04/02 08:04:50;;;;;;;;;;;8.60;99.90;;;;;;5071891;28;19950;-73
2024/04/02 08:07:17;;;;;;;;;;;8.50;99.90;;;;;;5053699;28;19940;-73
2024/04/02 08:09:46;;;;;;;;;;;8.60;99.90;;;;;;5073591;28;20023;-72
2024/04/02 08:12:12;;;;;;;;;;;8.70;99.90;;;;;;5073490;28;19915;-73
2024/04/02 08:14:38;;;;;;;;;;;8.60;99.90;;;;;;5053750;28;19905;-73
2024/04/02 08:17:04;;;;;;;;;;;8.60;99.90;;;;;;5073348;28;19958;-72
2024/04/02 08:19:29;;;;;;;;;;;8.60;99.90;;;;;;5073436;28;19991;-75
2024/04/02 08:21:55;;;;;;;;;;;8.70;99.90;;;;;;5054874;28;19904;-73
2024/04/02 08:24:21;;;;;;;;;;;8.70;99.90;;;;;;5053253;28;19904;-72
2024/04/02 08:26:46;;;;;;;;;;;8.80;99.90;;;;;;5071738;28;19905;-75
2024/04/02 08:29:12;;;;;;;;;;;8.90;99.90;;;;;;5072036;28;20458;-73
2024/04/02 08:31:37;;;;;;;;;;;8.90;99.90;;;;;;5071368;28;19904;-72
2024/04/02 08:34:03;;;;;;;;;;;8.90;99.90;;;;;;5071684;28;19908;-73
2024/04/02 08:36:29;;;;;;;;;;;8.90;99.90;;;;;;5071283;28;20003;-73
2024/04/02 08:38:55;;;;;;;;;;;9.00;99.90;;;;;;5074186;28;19920;-72
2024/04/02 08:41:21;;;;;;;;;;;9.10;99.90;;;;;;5077066;28;19904;-74
2024/04/02 08:43:46;;;;;;;;;;;9.10;99.90;;;;;;5056628;28;19954;-73
2024/04/02 08:46:12;;;;;;;;;;;9.10;99.90;;;;;;5053469;28;19950;-72
2024/04/02 08:48:38;;;;;;;;;;;9.20;99.90;;;;;;5053244;28;20391;-72
2024/04/02 08:51:05;;;;;;;;;;;9.30;99.90;;;;;;5053010;28;19908;-72
2024/04/02 08:53:33;;;;;;;;;;;9.30;99.90;;;;;;5070922;28;19944;-73
2024/04/02 08:55:59;;;;;;;;;;;9.40;99.90;;;;;;5070648;28;20270;-73
2024/04/02 08:58:28;;;;;;;;;;;9.50;99.90;;;;;;5052902;28;19915;-72
2024/04/02 09:00:54;;;;;;;;;;;9.50;99.90;;;;;;5070703;28;19909;-71
2024/04/02 09:03:20;;;;;;;;;;;9.60;99.90;;;;;;5052969;28;19905;-73
2024/04/02 09:05:46;;;;;;;;;;;9.60;99.90;;;;;;5052679;28;19947;-72
2024/04/02 09:08:14;;;;;;;;;;;9.60;99.90;;;;;;5052345;28;19904;-72
2024/04/02 09:10:42;;;;;;;;;;;9.70;99.90;;;;;;5070542;28;19941;-72
2024/04/02 09:13:07;;;;;;;;;;;9.80;99.90;;;;;;5070517;28;20647;-73
2024/04/02 09:15:35;;;;;;;;;;;9.80;99.90;;;;;;5070218;28;20051;-73
2024/04/02 09:18:00;;;;;;;;;;;9.90;99.90;;;;;;5052612;28;19920;-73
2024/04/02 09:20:26;;;;;;;;;;;9.90;99.90;;;;;;5070327;28;19908;-72
2024/04/02 09:22:52;;;;;;;;;;;9.90;99.90;;;;;;5069754;28;19908;-74
2024/04/02 09:25:18;;;;;;;;;;;10.00;99.90;;;;;;5070114;28;20422;-73
2024/04/02 09:27:43;;;;;;;;;;;10.10;99.90;;;;;;5052172;28;19908;-73
2024/04/02 09:30:09;;;;;;;;;;;10.10;99.90;;;;;;5052066;28;19916;-73
2024/04/02 09:32:38;;;;;;;;;;;10.00;99.90;;;;;;5052092;28;19963;-73
2024/04/02 09:35:13;;;;;;;;;;;10.20;99.90;;;;;;5051474;28;19948;-73
2024/04/02 09:37:44;;;;;;;;;;;10.40;99.90;;;;;;5051985;28;19928;-73
2024/04/02 09:40:10;;;;;;;;;;;10.40;99.90;;;;;;5069849;28;20012;-74
2024/04/02 09:42:37;;;;;;;;;;;10.60;99.90;;;;;;5051978;28;20024;-73
2024/04/02 09:45:04;;;;;;;;;;;10.70;99.90;;;;;;5070028;28;19915;-72
2024/04/02 09:47:30;;;;;;;;;;;10.70;99.90;;;;;;5051851;28;20316;-72
2024/04/02 09:49:56;;;;;;;;;;;10.90;99.90;;;;;;5051901;28;20408;-71
2024/04/02 09:52:25;;;;;;;;;;;11.00;99.90;;;;;;5051816;28;19908;-73
2024/04/02 09:54:51;;;;;;;;;;;11.10;99.90;;;;;;5051674;28;19952;-74
2024/04/02 09:57:18;;;;;;;;;;;11.30;99.90;;;;;;5051809;28;20356;-72
2024/04/02 09:59:43;;;;;;;;;;;11.40;99.90;;;;;;5069932;28;19904;-72
2024/04/02 10:02:13;;;;;;;;;;;11.40;99.90;;;;;;5051596;28;19943;-73
2024/04/02 10:04:40;;;;;;;;;;;11.60;99.90;;;;;;5052040;28;19921;-72
2024/04/02 10:07:05;;;;;;;;;;;11.60;99.90;;;;;;5069819;28;19930;-73
2024/04/02 10:09:41;;;;;;;;;;;11.60;99.90;;;;;;5069628;28;19908;-72
2024/04/02 10:12:07;;;;;;;;;;;11.70;99.90;;;;;;5069963;28;19942;-72
2024/04/02 10:14:36;;;;;;;;;;;11.80;99.90;;;;;;5069745;28;19955;-73
2024/04/02 10:17:01;;;;;;;;;;;11.90;99.90;;;;;;5069632;28;19913;-72
2024/04/02 10:19:29;;;;;;;;;;;11.90;99.90;;;;;;5051722;28;20280;-72
2024/04/02 10:21:55;;;;;;;;;;;12.00;99.90;;;;;;5051474;28;19911;-75
2024/04/02 10:24:24;;;;;;;;;;;12.20;99.90;;;;;;5069322;28;20331;-73
2024/04/02 10:26:56;;;;;;;;;;;12.20;99.90;;;;;;5051297;28;19904;-73
2024/04/02 10:29:27;;;;;;;;;;;12.10;99.90;;;;;;5069517;28;20299;-73
2024/04/02 10:31:56;;;;;;;;;;;12.10;99.90;;;;;;5069306;28;20011;-72
2024/04/02 10:34:23;;;;;;;;;;;12.20;99.90;;;;;;5069415;28;19915;-72
2024/04/02 10:36:48;;;;;;;;;;;12.40;99.90;;;;;;5051215;28;20011;-74
2024/04/02 10:39:14;;;;;;;;;;;12.40;99.90;;;;;;5068461;28;20007;-73
2024/04/02 10:41:45;;;;;;;;;;;12.50;99.90;;;;;;5088398;28;20296;-73
2024/04/02 10:44:11;;;;;;;;;;;12.60;99.90;;;;;;5088424;28;20435;-71
2024/04/02 10:46:37;;;;;;;;;;;12.70;99.90;;;;;;5091299;28;20120;-73
2024/04/02 10:49:02;;;;;;;;;;;12.70;99.90;;;;;;5093572;28;19930;-72
2024/04/02 10:51:29;;;;;;;;;;;12.70;99.90;;;;;;5092146;28;20384;-73
2024/04/02 10:53:55;;;;;;;;;;;13.00;99.90;;;;;;5086051;28;20706;-71
2024/04/02 10:56:23;;;;;;;;;;;13.00;99.90;;;;;;5092940;28;19991;-74
2024/04/02 10:58:50;;;;;;;;;;;13.00;99.90;;;;;;5091617;28;19908;-72
2024/04/02 11:01:16;;;;;;;;;;;13.10;99.90;;;;;;5092002;28;20007;-72
2024/04/02 11:03:42;;;;;;;;;;;13.40;99.90;;;;;;5091543;28;19908;-73
2024/04/02 11:06:08;;;;;;;;;;;13.50;99.90;;;;;;5091810;28;19911;-73
2024/04/02 11:08:36;;;;;;;;;;;13.60;99.90;;;;;;5091226;28;19908;-72
2024/04/02 11:11:03;;;;;;;;;;;13.80;99.90;;;;;;5091354;28;19908;-72
2024/04/02 11:13:28;;;;;;;;;;;13.80;99.90;;;;;;5091543;28;19916;-73
2024/04/02 11:15:54;;;;;;;;;;;13.80;99.90;;;;;;5092730;28;19980;-72
2024/04/02 11:18:26;;;;;;;;;;;13.90;99.90;;;;;;5091184;28;19908;-71
2024/04/02 11:20:55;;;;;;;;;;;14.00;99.90;;;;;;5092587;28;20376;-73
2024/04/02 11:26:16;;;;;;;;;;;14.30;99.90;;;;;;5092611;28;19921;-73
2024/04/02 11:28:41;;;;;;;;;;;14.30;99.90;;;;;;5091050;28;19995;-73
2024/04/02 11:31:08;;;;;;;;;;;14.40;99.90;;;;;;5091688;28;20007;-73
2024/04/02 11:33:34;;;;;;;;;;;14.50;99.90;;;;;;5090869;28;19915;-72
2024/04/02 11:36:01;;;;;;;;;;;14.70;99.90;;;;;;5091006;28;19912;-72
2024/04/02 11:38:27;;;;;;;;;;;14.70;99.90;;;;;;5090940;28;20304;-72
2024/04/02 11:40:53;;;;;;;;;;;14.90;99.90;;;;;;5091192;28;19908;-74
2024/04/02 11:43:19;;;;;;;;;;;15.00;99.90;;;;;;5091321;28;19911;-73
2024/04/02 11:45:44;;;;;;;;;;;15.20;99.90;;;;;;5092166;28;19949;-72
2024/04/02 11:48:10;;;;;;;;;;;15.30;99.30;;;;;;5090959;28;20281;-74
2024/04/02 11:50:35;;;;;;;;;;;15.40;98.20;;;;;;5091804;28;20369;-72
2024/04/02 11:53:01;;;;;;;;;;;15.40;96.70;;;;;;5086673;28;19904;-71
2024/04/02 11:55:26;;;;;;;;;;;15.40;96.20;;;;;;5090704;28;19904;-72
2024/04/02 12:00:36;;;;;;;;;;;15.50;96.20;;;;;;5092081;28;19911;-73
2024/04/02 12:03:03;;;;;;;;;;;15.60;96.60;;;;;;5091858;28;20472;-74
2024/04/02 12:05:29;;;;;;;;;;;15.80;94.30;;;;;;5092054;28;19908;-72
2024/04/02 12:07:54;;;;;;;;;;;16.00;93.60;;;;;;5091769;28;19908;-74
2024/04/02 12:10:20;;;;;;;;;;;15.90;94.00;;;;;;5091874;28;19912;-72
2024/04/02 12:12:46;;;;;;;;;;;16.10;91.90;;;;;;5091704;28;19953;-72
2024/04/02 12:15:11;;;;;;;;;;;16.20;91.30;;;;;;5090691;28;19908;-72
2024/04/02 12:17:37;;;;;;;;;;;16.20;91.90;;;;;;5090160;28;20553;-74
2024/04/02 12:20:05;;;;;;;;;;;16.40;90.70;;;;;;5091620;28;20630;-72
2024/04/02 12:22:31;;;;;;;;;;;16.70;85.50;;;;;;5091472;28;19904;-72
2024/04/02 12:24:56;;;;;;;;;;;16.70;84.20;;;;;;5091615;28;19939;-73
2024/04/02 12:27:22;;;;;;;;;;;16.80;86.10;;;;;;5091665;28;19957;-72
2024/04/02 12:29:58;;;;;;;;;;;17.10;77.60;;;;;;5091707;28;19908;-72
2024/04/02 12:32:24;;;;;;;;;;;17.10;76.00;;;;;;5091631;28;19908;-72
2024/04/02 12:34:50;;;;;;;;;;;17.00;73.60;;;;;;5091535;28;19908;-72
2024/04/02 12:37:16;;;;;;;;;;;16.80;77.90;;;;;;5090172;28;19922;-72
2024/04/02 12:39:43;;;;;;;;;;;16.80;77.00;;;;;;5076833;28;19999;-73
2024/04/02 12:42:09;;;;;;;;;;;16.80;79.30;;;;;;5052974;28;19912;-73
2024/04/02 12:44:35;;;;;;;;;;;16.90;78.00;;;;;;5053073;28;19951;-73
2024/04/02 12:47:00;;;;;;;;;;;16.90;76.60;;;;;;5070874;28;20002;-72
2024/04/02 12:49:26;;;;;;;;;;;16.80;77.60;;;;;;5052999;28;20272;-73
2024/04/02 12:51:52;;;;;;;;;;;16.80;75.40;;;;;;5070890;28;19939;-72
2024/04/02 12:54:18;;;;;;;;;;;16.70;76.10;;;;;;5052893;28;19911;-73
2024/04/02 12:56:43;;;;;;;;;;;16.70;73.10;;;;;;5052432;28;19923;-74
2024/04/02 12:59:09;;;;;;;;;;;16.60;76.20;;;;;;5070300;28;19913;-75
2024/04/02 13:01:34;;;;;;;;;;;16.60;75.10;;;;;;5070391;28;19944;-73
2024/04/02 13:04:00;;;;;;;;;;;16.80;73.50;;;;;;5070503;28;19947;-72
2024/04/02 13:06:25;;;;;;;;;;;16.80;74.60;;;;;;5052622;28;19904;-73
2024/04/02 13:08:51;;;;;;;;;;;16.80;72.40;;;;;;5069556;28;19924;-73
2024/04/02 13:11:17;;;;;;;;;;;16.70;73.60;;;;;;5052670;28;19954;-73
2024/04/02 13:13:42;;;;;;;;;;;16.50;72.80;;;;;;5070433;28;19912;-73
2024/04/02 13:16:11;;;;;;;;;;;16.20;77.60;;;;;;5052567;28;19966;-72
2024/04/02 13:18:36;;;;;;;;;;;15.70;81.60;;;;;;5070496;28;19908;-72
2024/04/02 13:21:02;;;;;;;;;;;15.70;82.20;;;;;;5070242;28;19966;-73
2024/04/02 13:23:28;;;;;;;;;;;15.60;82.90;;;;;;5052141;28;20284;-72
2024/04/02 13:25:53;;;;;;;;;;;15.60;85.80;;;;;;5068571;28;19936;-72
2024/04/02 13:28:19;;;;;;;;;;;15.70;85.50;;;;;;5070054;28;19948;-73
2024/04/02 13:30:44;;;;;;;;;;;15.70;85.40;;;;;;5070148;28;19915;-73
2024/04/02 13:33:10;;;;;;;;;;;15.80;83.10;;;;;;5069926;28;19915;-72
2024/04/02 13:35:35;;;;;;;;;;;15.80;81.60;;;;;;5052033;28;19912;-73
2024/04/02 13:38:01;;;;;;;;;;;15.80;80.00;;;;;;5051900;28;19962;-71
2024/04/02 13:40:27;;;;;;;;;;;15.70;80.50;;;;;;5070001;28;19908;-73
2024/04/02 13:42:52;;;;;;;;;;;15.80;79.70;;;;;;5069898;28;19908;-73
2024/04/02 13:45:18;;;;;;;;;;;15.80;82.50;;;;;;5070072;28;20526;-73
2024/04/02 13:47:43;;;;;;;;;;;15.80;82.40;;;;;;5070075;28;20365;-73
2024/04/02 13:50:09;;;;;;;;;;;15.60;83.80;;;;;;5052100;28;19920;-73
2024/04/02 13:52:34;;;;;;;;;;;15.60;81.90;;;;;;5051525;28;19930;-72
2024/04/02 13:55:00;;;;;;;;;;;15.50;80.90;;;;;;5052046;28;19999;-72
2024/04/02 13:57:26;;;;;;;;;;;15.30;83.20;;;;;;5051992;28;19920;-73
2024/04/02 13:59:52;;;;;;;;;;;15.10;86.30;;;;;;5069816;28;20285;-73
2024/04/02 14:02:21;;;;;;;;;;;14.80;90.40;;;;;;5051688;28;19915;-73
2024/04/02 14:04:46;;;;;;;;;;;14.60;92.90;;;;;;5069649;28;20407;-73
2024/04/02 14:07:12;;;;;;;;;;;14.50;94.10;;;;;;5051460;28;19904;-73
2024/04/02 14:09:38;;;;;;;;;;;14.30;95.70;;;;;;5051675;28;19908;-73
2024/04/02 14:12:04;;;;;;;;;;;14.20;97.00;;;;;;5051489;28;19912;-73
2024/04/02 14:14:30;;;;;;;;;;;14.10;99.80;;;;;;5069259;28;19908;-73
2024/04/02 14:16:55;;;;;;;;;;;14.00;99.90;;;;;;5069362;28;19919;-73
2024/04/02 14:19:21;;;;;;;;;;;13.90;99.90;;;;;;5069402;28;19905;-72